Time;durP1;ratioP1;P1;durP2;ratioP2;P2;SDS_P1;SDS_P2;PMS_P1;PMS_P2;Temp;Humidity;BMP_temperature;BMP_pressure;BME280_temperature;BME280_humidity;BME280_pressure;Samples;Min_cycle;Max_cycle;Signal;HPM_P1;HPM_P2
2021/12/07 00:00:48;;;;;;;18.65;14.95;;;2.60;99.90;;;;;;5003522;28;20381;-57
2021/12/07 00:03:14;;;;;;;17.05;15.18;;;2.50;99.90;;;;;;5003195;28;20124;-57
2021/12/07 00:05:40;;;;;;;18.50;15.05;;;2.50;99.90;;;;;;5004521;28;20042;-58
2021/12/07 00:08:06;;;;;;;20.48;16.38;;;2.40;99.90;;;;;;5002998;28;20424;-57
2021/12/07 00:10:32;;;;;;;20.77;15.52;;;2.40;99.90;;;;;;5004741;28;20038;-57
2021/12/07 00:12:58;;;;;;;17.00;14.85;;;2.40;99.90;;;;;;5005556;28;20077;-57
2021/12/07 00:15:24;;;;;;;18.95;14.55;;;2.30;99.90;;;;;;5010345;28;20069;-57
2021/12/07 00:17:51;;;;;;;19.23;15.10;;;2.20;99.90;;;;;;5006294;28;20046;-57
2021/12/07 00:20:20;;;;;;;19.15;15.05;;;2.20;99.90;;;;;;5004394;28;20081;-56
2021/12/07 00:22:48;;;;;;;19.17;14.98;;;2.10;99.90;;;;;;5008923;28;20045;-57
2021/12/07 00:25:14;;;;;;;;;;;2.00;99.90;;;;;;5005139;28;20053;-56
2021/12/07 00:27:40;;;;;;;19.52;14.70;;;1.90;99.90;;;;;;5003637;28;19921;-57
2021/12/07 00:30:08;;;;;;;19.67;15.07;;;1.90;99.90;;;;;;5001920;28;20061;-55
2021/12/07 00:32:38;;;;;;;19.05;14.75;;;1.80;99.90;;;;;;5001918;28;20096;-56
2021/12/07 00:37:56;;;;;;;19.33;15.43;;;1.80;99.90;;;;;;5004108;28;20054;-56
2021/12/07 00:40:23;;;;;;;22.38;16.10;;;1.70;99.90;;;;;;5002092;28;20077;-57
2021/12/07 00:42:49;;;;;;;20.60;16.20;;;1.60;99.90;;;;;;5002162;28;20050;-56
2021/12/07 00:45:20;;;;;;;20.88;15.85;;;1.60;99.90;;;;;;5002946;28;20044;-57
2021/12/07 00:47:48;;;;;;;19.15;15.20;;;1.60;99.90;;;;;;5005255;28;20401;-57
2021/12/07 00:50:15;;;;;;;21.35;16.15;;;1.60;99.90;;;;;;5001501;28;20038;-57
2021/12/07 00:52:40;;;;;;;23.35;16.88;;;1.50;99.90;;;;;;5001310;28;20042;-57
2021/12/07 00:55:10;;;;;;;22.27;15.68;;;1.50;99.90;;;;;;5004349;28;20053;-56
2021/12/07 00:57:36;;;;;;;18.83;15.65;;;1.50;99.90;;;;;;5010995;28;20392;-55
2021/12/07 01:00:05;;;;;;;21.63;16.88;;;1.50;99.90;;;;;;5005606;28;20038;-56
2021/12/07 01:02:30;;;;;;;22.73;15.70;;;1.50;99.90;;;;;;5005502;28;20173;-52
2021/12/07 01:05:03;;;;;;;21.20;15.88;;;1.50;99.90;;;;;;5002973;28;20411;-56
2021/12/07 01:26:48;;;;;;;19.20;16.05;;;1.40;99.90;;;;;;5007875;28;20511;-54
2021/12/07 01:29:17;;;;;;;19.83;15.37;;;1.30;99.90;;;;;;5010202;28;20424;-56
2021/12/07 01:37:07;;;;;;;19.52;16.20;;;1.30;99.90;;;;;;5002457;28;20141;-56
2021/12/07 01:45:37;;;;;;;20.85;16.85;;;1.40;99.90;;;;;;5007761;28;20145;-57
2021/12/07 01:48:08;;;;;;;21.17;16.70;;;1.30;99.90;;;;;;5005637;28;20454;-57
2021/12/07 01:57:50;;;;;;;21.02;16.63;;;1.30;99.90;;;;;;5005849;28;20486;-56
2021/12/07 02:01:32;;;;;;;20.60;16.55;;;1.30;99.90;;;;;;5013470;28;20476;-57
2021/12/07 02:03:58;;;;;;;20.70;16.63;;;1.30;99.90;;;;;;5013378;28;20084;-57
2021/12/07 02:06:23;;;;;;;21.60;17.20;;;1.30;99.90;;;;;;5006917;28;20423;-57
2021/12/07 02:08:49;;;;;;;20.35;16.02;;;1.30;99.90;;;;;;5005243;28;20108;-55
2021/12/07 02:11:15;;;;;;;19.83;15.93;;;1.40;99.90;;;;;;5004589;28;20064;-57
2021/12/07 02:16:11;;;;;;;20.10;14.82;;;1.40;99.90;;;;;;5004759;28;20046;-57
2021/12/07 02:18:38;;;;;;;21.88;16.15;;;1.40;99.90;;;;;;5006377;28;20125;-57
2021/12/07 02:21:32;;;;;;;19.08;15.10;;;1.40;99.90;;;;;;5006009;28;20507;-57
2021/12/07 02:23:58;;;;;;;20.38;15.93;;;1.50;99.90;;;;;;4994867;28;20104;-56
2021/12/07 02:26:24;;;;;;;19.27;15.35;;;1.40;99.90;;;;;;5012795;28;20050;-57
2021/12/07 02:28:52;;;;;;;19.40;14.88;;;1.40;99.90;;;;;;5007035;28;20054;-57
2021/12/07 02:31:18;;;;;;;22.42;15.43;;;1.40;99.90;;;;;;5002521;28;20088;-56
2021/12/07 02:33:44;;;;;;;18.58;14.90;;;1.40;99.90;;;;;;5004352;28;20443;-56
2021/12/07 02:36:10;;;;;;;18.90;14.80;;;1.40;99.90;;;;;;5003115;28;20046;-57
2021/12/07 02:38:36;;;;;;;18.98;14.60;;;1.40;99.90;;;;;;5003050;28;21108;-56
2021/12/07 02:41:02;;;;;;;19.88;15.93;;;1.40;99.90;;;;;;5001997;28;20529;-57
2021/12/07 02:43:27;;;;;;;19.02;15.25;;;1.40;99.90;;;;;;5004557;28;20077;-58
2021/12/07 02:45:53;;;;;;;19.48;15.70;;;1.40;99.90;;;;;;4987091;28;20088;-56
2021/12/07 02:48:21;;;;;;;20.45;15.98;;;1.40;99.90;;;;;;5002167;28;20081;-57
2021/12/07 02:50:47;;;;;;;21.25;16.30;;;1.40;99.90;;;;;;5002897;28;20068;-56
2021/12/07 02:53:13;;;;;;;21.48;16.60;;;1.40;99.90;;;;;;5003743;28;20058;-57
2021/12/07 02:55:39;;;;;;;20.42;15.15;;;1.40;99.90;;;;;;5004303;28;20051;-56
2021/12/07 02:58:04;;;;;;;23.63;17.33;;;1.40;99.90;;;;;;5005788;28;20496;-56
2021/12/07 03:00:39;;;;;;;23.17;17.50;;;1.40;99.90;;;;;;5006491;28;20139;-57
2021/12/07 03:03:09;;;;;;;20.45;15.35;;;1.40;99.90;;;;;;5004295;28;20145;-57
2021/12/07 03:05:50;;;;;;;23.75;17.50;;;1.50;99.90;;;;;;5006138;28;20046;-55
2021/12/07 03:27:13;;;;;;;26.55;18.60;;;1.50;99.90;;;;;;5012234;28;20084;-57
2021/12/07 03:29:38;;;;;;;24.88;19.30;;;1.50;99.90;;;;;;5004867;28;20042;-57
2021/12/07 03:32:04;;;;;;;28.60;20.52;;;1.50;99.90;;;;;;5004748;28;20038;-55
2021/12/07 03:34:30;;;;;;;29.27;21.30;;;1.50;99.90;;;;;;5003592;28;20479;-57
2021/12/07 03:36:55;;;;;;;27.27;20.88;;;1.50;99.90;;;;;;5006711;28;20081;-58
2021/12/07 03:39:21;;;;;;;27.50;20.25;;;1.50;99.90;;;;;;5009100;28;20381;-57
2021/12/07 03:41:47;;;;;;;30.23;21.40;;;1.50;99.90;;;;;;5007608;28;20038;-57
2021/12/07 03:44:13;;;;;;;27.33;20.35;;;1.50;99.90;;;;;;5009827;28;20104;-57
2021/12/07 03:46:38;;;;;;;29.08;20.85;;;1.50;99.90;;;;;;5003156;28;20050;-57
2021/12/07 03:49:04;;;;;;;28.63;20.73;;;1.50;99.90;;;;;;5009067;28;20068;-57
2021/12/07 03:51:30;;;;;;;32.28;20.75;;;1.50;99.90;;;;;;5011364;28;20120;-57
2021/12/07 03:53:56;;;;;;;26.45;20.33;;;1.50;99.90;;;;;;5007711;28;20076;-56
2021/12/07 03:56:22;;;;;;;26.05;19.92;;;1.40;99.90;;;;;;5010940;28;20766;-57
2021/12/07 03:58:47;;;;;;;27.42;20.25;;;1.40;99.90;;;;;;5004605;28;20037;-57
2021/12/07 04:01:13;;;;;;;27.55;19.48;;;1.30;99.90;;;;;;5004591;28;20054;-57
2021/12/07 04:03:41;;;;;;;29.05;20.13;;;1.30;99.90;;;;;;5004855;28;20140;-56
2021/12/07 04:06:07;;;;;;;26.77;19.83;;;1.30;99.90;;;;;;5004306;28;20101;-56
2021/12/07 04:08:38;;;;;;;26.67;19.20;;;1.30;99.90;;;;;;5004622;28;20832;-56
2021/12/07 04:11:04;;;;;;;25.35;19.55;;;1.20;99.90;;;;;;5004258;28;20530;-56
2021/12/07 04:13:30;;;;;;;27.42;18.92;;;1.20;99.90;;;;;;5005387;28;20400;-56
2021/12/07 04:15:57;;;;;;;21.88;17.10;;;1.20;99.90;;;;;;5007509;28;20050;-56
2021/12/07 04:18:23;;;;;;;24.83;18.05;;;1.10;99.90;;;;;;5005141;28;20462;-58
2021/12/07 04:20:49;;;;;;;29.77;20.35;;;1.20;99.90;;;;;;5005072;28;20033;-56
2021/12/07 04:23:14;;;;;;;28.77;20.17;;;1.20;99.90;;;;;;5005616;28;20470;-55
2021/12/07 04:25:40;;;;;;;27.95;20.02;;;1.10;99.90;;;;;;5004873;28;20061;-57
2021/12/07 04:28:06;;;;;;;30.98;19.73;;;1.20;99.90;;;;;;5004578;28;20058;-56
2021/12/07 04:30:35;;;;;;;27.88;19.58;;;1.20;99.90;;;;;;5008009;28;20491;-56
2021/12/07 04:33:03;;;;;;;25.63;20.13;;;1.20;99.90;;;;;;5004218;28;20042;-56
2021/12/07 04:35:29;;;;;;;25.73;18.70;;;1.20;99.90;;;;;;5005580;28;20090;-57
2021/12/07 04:37:56;;;;;;;28.80;18.70;;;1.20;99.90;;;;;;5005983;28;20533;-57
2021/12/07 04:40:27;;;;;;;27.75;17.83;;;1.10;99.90;;;;;;5005432;28;20504;-56
2021/12/07 04:42:52;;;;;;;29.45;19.73;;;1.10;99.90;;;;;;5004898;28;20078;-56
2021/12/07 04:48:10;;;;;;;32.78;20.13;;;1.20;99.90;;;;;;5004130;28;20050;-57
2021/12/07 04:58:30;;;;;;;29.73;18.23;;;1.30;99.90;;;;;;5008328;28;20112;-56
2021/12/07 05:00:56;;;;;;;31.20;19.55;;;1.30;99.90;;;;;;5004132;28;20034;-57
2021/12/07 05:03:23;;;;;;;27.70;17.90;;;1.30;99.90;;;;;;5004176;28;20464;-57
2021/12/07 05:05:51;;;;;;;31.85;19.15;;;1.40;99.90;;;;;;5003881;28;20042;-56
2021/12/07 05:08:33;;;;;;;34.78;19.77;;;1.40;99.90;;;;;;5002414;28;20683;-56
2021/12/07 05:11:23;;;;;;;28.38;18.55;;;1.40;99.90;;;;;;5003793;28;20049;-52
2021/12/07 05:23:57;;;;;;;29.98;18.30;;;1.20;99.90;;;;;;5007678;28;20513;-57
2021/12/07 05:39:54;;;;;;;29.90;17.45;;;1.00;99.90;;;;;;5006835;28;20100;-56
2021/12/07 05:42:22;;;;;;;27.20;17.98;;;1.00;99.90;;;;;;5007004;28;20046;-58
2021/12/07 05:44:48;;;;;;;32.03;18.17;;;1.00;99.90;;;;;;5007280;28;20482;-58
2021/12/07 05:47:14;;;;;;;30.00;17.88;;;1.00;99.90;;;;;;5010660;28;20192;-56
2021/12/07 05:49:39;;;;;;;31.15;18.95;;;1.10;99.90;;;;;;5012329;28;20049;-56
2021/12/07 05:52:05;;;;;;;35.83;19.20;;;1.10;99.90;;;;;;5011736;28;20381;-55
2021/12/07 05:54:31;;;;;;;29.15;17.58;;;1.10;99.90;;;;;;5005564;28;20412;-55
2021/12/07 05:56:57;;;;;;;33.63;18.83;;;1.10;99.90;;;;;;5005673;28;20045;-56
2021/12/07 05:59:22;;;;;;;31.45;18.52;;;1.00;99.90;;;;;;5003667;28;20530;-57
2021/12/07 06:01:48;;;;;;;33.50;19.33;;;1.00;99.90;;;;;;4989289;28;20041;-57
2021/12/07 06:04:13;;;;;;;38.85;19.40;;;1.00;99.90;;;;;;4986547;28;20050;-56
2021/12/07 06:06:39;;;;;;;33.15;18.95;;;1.00;99.90;;;;;;5007276;28;20125;-56
2021/12/07 06:09:06;;;;;;;29.90;18.67;;;1.00;99.90;;;;;;5005540;28;20103;-56
2021/12/07 06:11:32;;;;;;;31.65;18.13;;;0.90;99.90;;;;;;5005517;28;20053;-56
2021/12/07 06:13:57;;;;;;;35.45;18.90;;;0.90;99.90;;;;;;5006577;28;20047;-56
2021/12/07 06:16:29;;;;;;;32.50;18.42;;;0.90;99.90;;;;;;5005396;28;20045;-58
2021/12/07 06:18:54;;;;;;;32.85;18.27;;;0.90;99.90;;;;;;5005924;28;20128;-56
2021/12/07 06:21:20;;;;;;;31.20;17.65;;;0.90;99.90;;;;;;5005864;28;20103;-58
2021/12/07 06:23:46;;;;;;;34.80;18.40;;;0.90;99.90;;;;;;5006638;28;20045;-57
2021/12/07 06:26:11;;;;;;;39.08;18.63;;;0.90;99.90;;;;;;5005911;28;20600;-55
2021/12/07 06:28:37;;;;;;;34.95;18.83;;;0.90;99.90;;;;;;5005533;28;20041;-56
2021/12/07 06:31:03;;;;;;;37.33;19.02;;;0.90;99.90;;;;;;5005571;28;21347;-57
2021/12/07 06:33:28;;;;;;;33.30;18.38;;;0.90;99.90;;;;;;5011571;28;20048;-56
2021/12/07 06:35:57;;;;;;;31.42;18.15;;;0.90;99.90;;;;;;5013565;28;20108;-57
2021/12/07 06:38:24;;;;;;;34.15;19.25;;;0.80;99.90;;;;;;5014638;28;20492;-56
2021/12/07 06:40:50;;;;;;;40.00;19.00;;;0.80;99.90;;;;;;5015643;28;20092;-56
2021/12/07 06:43:16;;;;;;;39.13;19.02;;;0.80;99.90;;;;;;5006787;28;20451;-58
2021/12/07 06:45:42;;;;;;;35.45;18.98;;;0.80;99.90;;;;;;5007608;28;20034;-58
2021/12/07 06:48:07;;;;;;;38.30;18.73;;;0.70;99.90;;;;;;4971331;28;1024059;-56
2021/12/07 06:50:34;;;;;;;41.58;19.52;;;0.70;99.90;;;;;;5007273;28;20042;-57
2021/12/07 06:52:59;;;;;;;31.77;18.33;;;0.70;99.90;;;;;;5008147;28;20088;-56
2021/12/07 06:55:25;;;;;;;39.63;19.25;;;0.80;99.90;;;;;;5015365;28;20050;-56
2021/12/07 06:57:51;;;;;;;36.55;19.17;;;0.90;99.90;;;;;;4993174;28;20053;-57
2021/12/07 07:00:18;;;;;;;39.33;18.98;;;0.80;99.90;;;;;;5006979;28;20042;-56
2021/12/07 07:02:44;;;;;;;31.35;18.45;;;0.90;99.90;;;;;;5008246;28;20038;-56
2021/12/07 07:05:10;;;;;;;37.55;18.98;;;0.90;99.90;;;;;;5006387;28;20072;-57
2021/12/07 07:07:36;;;;;;;30.33;18.80;;;0.90;99.90;;;;;;5006814;28;20046;-55
2021/12/07 07:10:05;;;;;;;36.72;17.98;;;0.80;99.90;;;;;;5007606;28;20065;-57
2021/12/07 07:12:31;;;;;;;30.00;18.85;;;0.90;99.90;;;;;;5006467;28;20104;-56
2021/12/07 07:14:56;;;;;;;34.67;18.75;;;0.90;99.90;;;;;;5008277;28;20480;-57
2021/12/07 07:17:22;;;;;;;42.60;20.30;;;0.90;99.90;;;;;;5005055;28;20034;-57
2021/12/07 07:19:48;;;;;;;44.08;20.13;;;0.90;99.90;;;;;;5006979;28;20038;-56
2021/12/07 07:22:13;;;;;;;38.45;18.75;;;0.90;99.90;;;;;;5005373;28;20511;-57
2021/12/07 07:24:41;;;;;;;41.42;19.85;;;0.90;99.90;;;;;;5007597;28;20061;-57
2021/12/07 07:27:06;;;;;;;38.88;19.02;;;1.00;99.90;;;;;;5006745;28;20482;-57
2021/12/07 07:29:32;;;;;;;34.47;19.45;;;1.20;99.90;;;;;;5006524;28;20088;-58
2021/12/07 07:31:58;;;;;;;41.00;19.88;;;1.20;99.90;;;;;;5006414;28;20672;-56
2021/12/07 07:34:24;;;;;;;43.80;19.27;;;1.20;99.90;;;;;;5007109;28;20076;-58
2021/12/07 07:36:50;;;;;;;37.15;18.30;;;1.30;99.90;;;;;;5007171;28;20084;-58
2021/12/07 07:39:15;;;;;;;35.40;17.70;;;1.30;99.90;;;;;;5005294;28;20038;-56
2021/12/07 07:41:41;;;;;;;37.13;17.63;;;1.30;99.90;;;;;;5006313;28;20519;-56
2021/12/07 07:44:07;;;;;;;34.08;17.27;;;1.40;99.90;;;;;;5005988;28;20396;-54
2021/12/07 07:46:32;;;;;;;41.70;17.55;;;1.40;99.90;;;;;;5006474;28;20101;-57
2021/12/07 07:49:00;;;;;;;33.38;16.98;;;1.40;99.90;;;;;;5005595;28;20254;-57
2021/12/07 07:51:26;;;;;;;33.93;17.47;;;1.40;99.90;;;;;;5004184;28;20054;-57
2021/12/07 07:53:54;;;;;;;36.42;17.02;;;1.50;99.90;;;;;;5005453;28;20041;-57
2021/12/07 07:56:20;;;;;;;27.27;16.17;;;1.50;99.90;;;;;;5005717;28;20058;-57
2021/12/07 07:58:45;;;;;;;31.13;16.13;;;1.40;99.90;;;;;;5005738;28;20034;-55
2021/12/07 08:01:11;;;;;;;31.17;15.90;;;1.40;99.90;;;;;;5012567;28;20060;-53
2021/12/07 08:03:37;;;;;;;30.65;16.00;;;1.40;99.90;;;;;;5007122;28;20133;-53
2021/12/07 08:06:02;;;;;;;37.97;17.60;;;1.40;99.90;;;;;;5004876;28;20042;-53
2021/12/07 08:08:28;;;;;;;32.15;17.92;;;1.40;99.90;;;;;;5004125;28;20042;-55
2021/12/07 08:10:53;;;;;;;35.65;17.58;;;1.30;99.90;;;;;;5003036;28;20054;-56
2021/12/07 08:13:19;;;;;;;35.30;17.02;;;1.30;99.90;;;;;;5003425;28;20045;-57
2021/12/07 08:15:47;;;;;;;31.38;16.95;;;1.30;99.90;;;;;;5004874;28;20049;-57
2021/12/07 08:18:13;;;;;;;26.52;16.25;;;1.40;99.90;;;;;;5004974;28;20088;-55
2021/12/07 08:20:40;;;;;;;34.47;16.70;;;1.40;99.90;;;;;;5002722;28;20041;-56
2021/12/07 08:23:06;;;;;;;34.22;17.05;;;1.40;99.90;;;;;;5003635;28;20090;-56
2021/12/07 08:25:37;;;;;;;31.13;14.75;;;1.40;99.90;;;;;;5002027;28;20125;-56
2021/12/07 08:28:07;;;;;;;37.95;15.30;;;1.40;99.90;;;;;;5002524;28;20045;-56
2021/12/07 08:30:36;;;;;;;33.72;15.65;;;1.50;99.90;;;;;;4992116;28;20041;-56
2021/12/07 08:33:03;;;;;;;34.15;15.07;;;1.50;99.90;;;;;;5009279;28;20043;-55
2021/12/07 08:35:28;;;;;;;34.25;16.23;;;1.50;99.90;;;;;;5011780;28;20038;-55
2021/12/07 08:37:54;;;;;;;35.97;15.20;;;1.60;99.90;;;;;;5009715;28;20385;-56
2021/12/07 08:40:23;;;;;;;32.15;15.40;;;1.60;99.90;;;;;;5008723;28;20496;-56
2021/12/07 08:42:50;;;;;;;34.85;14.77;;;1.60;99.90;;;;;;5009200;28;20053;-56
2021/12/07 08:45:16;;;;;;;28.60;14.38;;;1.60;99.90;;;;;;5009440;28;20084;-56
2021/12/07 08:47:42;;;;;;;33.08;15.48;;;1.60;99.90;;;;;;5010443;28;20094;-57
2021/12/07 08:50:12;;;;;;;29.50;16.08;;;1.70;99.90;;;;;;5005043;28;20483;-56
2021/12/07 08:52:38;;;;;;;32.10;16.13;;;1.70;99.90;;;;;;5003762;28;20042;-58
2021/12/07 09:00:16;;;;;;;34.63;14.98;;;1.70;99.90;;;;;;5007920;28;20060;-58
2021/12/07 09:02:42;;;;;;;36.08;14.75;;;1.80;99.90;;;;;;5004099;28;20046;-56
2021/12/07 09:05:09;;;;;;;31.83;15.20;;;1.80;99.90;;;;;;5006291;28;20495;-56
2021/12/07 09:07:35;;;;;;;29.58;14.32;;;1.80;99.90;;;;;;5004349;28;20440;-54
2021/12/07 09:10:01;;;;;;;32.00;15.07;;;1.80;99.90;;;;;;5005546;28;20041;-56
2021/12/07 09:12:27;;;;;;;28.35;13.57;;;1.80;99.90;;;;;;5012883;28;20070;-56
2021/12/07 09:14:53;;;;;;;31.13;14.05;;;1.80;99.90;;;;;;5012832;28;20131;-56
2021/12/07 09:17:19;;;;;;;28.38;13.80;;;1.80;99.90;;;;;;5011874;28;20184;-57
2021/12/07 09:19:44;;;;;;;28.67;13.40;;;1.90;99.90;;;;;;5010801;28;20065;-56
2021/12/07 09:22:10;;;;;;;31.88;14.02;;;1.90;99.90;;;;;;5011713;28;20050;-56
2021/12/07 09:24:36;;;;;;;36.78;13.60;;;1.90;99.90;;;;;;4995116;28;20488;-56
2021/12/07 09:27:02;;;;;;;28.67;12.80;;;2.00;99.90;;;;;;5012911;28;20046;-56
2021/12/07 09:29:28;;;;;;;31.92;13.73;;;2.00;99.90;;;;;;5011442;28;20125;-57
2021/12/07 09:31:55;;;;;;;29.42;14.57;;;2.10;99.90;;;;;;5011750;28;20175;-56
2021/12/07 09:34:20;;;;;;;32.25;14.77;;;2.20;99.90;;;;;;5012786;28;20069;-57
2021/12/07 09:36:47;;;;;;;30.80;13.77;;;2.20;99.90;;;;;;5012320;28;20506;-56
2021/12/07 09:39:16;;;;;;;28.30;13.95;;;2.30;99.90;;;;;;5012330;28;20054;-56
2021/12/07 09:41:42;;;;;;;32.35;14.25;;;2.30;99.90;;;;;;5011459;28;20138;-57
2021/12/07 09:44:08;;;;;;;29.15;14.13;;;2.40;99.90;;;;;;5011741;28;20049;-57
2021/12/07 09:46:35;;;;;;;34.15;15.18;;;2.40;99.90;;;;;;5011304;28;20455;-56
2021/12/07 09:49:02;;;;;;;30.08;14.50;;;2.50;99.90;;;;;;5012925;28;20045;-56
2021/12/07 09:51:28;;;;;;;29.40;13.50;;;2.60;99.90;;;;;;5011306;28;20092;-55
2021/12/07 09:53:56;;;;;;;30.00;12.25;;;2.70;99.90;;;;;;5011923;28;20034;-56
2021/12/07 09:56:22;;;;;;;26.90;12.05;;;2.70;99.90;;;;;;5011724;28;20077;-57
2021/12/07 09:58:50;;;;;;;23.88;11.52;;;2.60;99.90;;;;;;5011335;28;20092;-57
2021/12/07 10:01:17;;;;;;;24.73;11.75;;;2.60;99.90;;;;;;5012592;28;20452;-57
2021/12/07 10:03:42;;;;;;;26.23;11.40;;;2.50;99.90;;;;;;4996277;28;20373;-56
2021/12/07 10:06:08;;;;;;;27.92;11.70;;;2.50;99.90;;;;;;5015858;28;20042;-56
2021/12/07 10:08:35;;;;;;;29.42;11.95;;;2.50;99.90;;;;;;5015913;28;20415;-57
2021/12/07 10:11:04;;;;;;;25.27;12.32;;;2.50;99.90;;;;;;4991238;28;20042;-56
2021/12/07 10:13:31;;;;;;;30.90;12.90;;;2.60;99.90;;;;;;5012844;28;20488;-56
2021/12/07 10:16:02;;;;;;;22.35;11.63;;;2.60;99.90;;;;;;5013661;28;20037;-57
2021/12/07 10:18:33;;;;;;;26.55;12.18;;;2.70;99.90;;;;;;5015894;28;20042;-56
2021/12/07 10:21:01;;;;;;;26.13;11.43;;;;;;;;;;5013119;28;20046;-55
2021/12/07 10:23:34;;;;;;;25.50;12.02;;;2.80;99.90;;;;;;5015611;28;20495;-56
2021/12/07 10:26:10;;;;;;;32.28;12.40;;;2.90;99.90;;;;;;4999829;28;20485;-55
2021/12/07 10:28:36;;;;;;;29.75;11.23;;;3.00;99.90;;;;;;5013464;28;20135;-56
2021/12/07 10:31:33;;;;;;;25.55;12.15;;;3.10;99.90;;;;;;5015385;28;20049;-57
2021/12/07 10:34:06;;;;;;;20.92;12.38;;;3.10;99.90;;;;;;5007906;28;20098;-56
2021/12/07 10:36:43;;;;;;;24.45;10.95;;;3.20;99.90;;;;;;5012888;28;20046;-56
2021/12/07 10:39:24;;;;;;;19.55;10.70;;;3.20;99.90;;;;;;5014943;28;20192;-56
2021/12/07 10:41:51;;;;;;;23.05;10.90;;;3.10;99.90;;;;;;5013744;28;20100;-55
2021/12/07 10:44:23;;;;;;;25.73;10.30;;;3.10;99.90;;;;;;5014219;28;20514;-56
2021/12/07 10:46:52;;;;;;;27.95;11.88;;;3.00;99.90;;;;;;5013784;28;20304;-56
2021/12/07 10:49:17;;;;;;;25.33;11.35;;;3.10;99.90;;;;;;5013993;28;20108;-57
2021/12/07 10:51:55;;;;;;;29.17;11.98;;;3.20;99.90;;;;;;5008477;28;20042;-57
2021/12/07 10:54:22;;;;;;;26.10;11.38;;;3.20;99.90;;;;;;5013822;28;20054;-57
2021/12/07 10:56:49;;;;;;;23.63;11.37;;;3.20;99.90;;;;;;5013454;28;20045;-57
2021/12/07 10:59:15;;;;;;;28.42;11.65;;;3.20;99.90;;;;;;5012386;28;20309;-57
2021/12/07 11:01:46;;;;;;;24.65;12.40;;;3.30;99.90;;;;;;5012533;28;20044;-57
2021/12/07 11:04:23;;;;;;;23.02;11.52;;;3.40;99.90;;;;;;5012451;28;20050;-56
2021/12/07 11:07:19;;;;;;;25.55;11.93;;;3.50;99.90;;;;;;5014826;28;20061;-57
2021/12/07 11:09:48;;;;;;;23.48;10.98;;;3.50;99.90;;;;;;5014853;28;20041;-57
2021/12/07 11:12:18;;;;;;;23.88;11.25;;;3.40;99.90;;;;;;5016636;28;20049;-57
2021/12/07 11:14:52;;;;;;;28.63;10.80;;;3.40;99.90;;;;;;5009913;28;20132;-56
2021/12/07 11:17:21;;;;;;;19.27;10.32;;;3.40;99.90;;;;;;5009002;28;20153;-57
2021/12/07 11:19:47;;;;;;;24.42;11.98;;;3.40;99.90;;;;;;5007950;28;20053;-57
2021/12/07 11:22:15;;;;;;;26.65;11.63;;;3.50;99.90;;;;;;5005598;28;20417;-57
2021/12/07 11:24:46;;;;;;;30.67;14.23;;;3.60;99.90;;;;;;5010901;28;20042;-57
2021/12/07 11:30:01;;;;;;;29.13;13.02;;;3.90;99.90;;;;;;5021104;28;20085;-55
2021/12/07 11:32:27;;;;;;;24.27;12.38;;;4.00;99.90;;;;;;5011622;28;20049;-55
2021/12/07 11:34:53;;;;;;;23.08;11.73;;;4.10;99.90;;;;;;5013058;28;20088;-57
2021/12/07 11:37:22;;;;;;;22.45;11.27;;;;;;;;;;5010840;28;20444;-57
2021/12/07 11:39:55;;;;;;;23.88;11.60;;;4.20;99.90;;;;;;5010545;28;20054;-57
2021/12/07 11:42:30;;;;;;;26.45;11.60;;;4.20;99.90;;;;;;5012543;28;20057;-57
2021/12/07 11:45:00;;;;;;;20.85;11.43;;;4.30;99.90;;;;;;5007685;28;20038;-55
2021/12/07 11:47:28;;;;;;;23.92;10.88;;;4.30;99.90;;;;;;5010323;28;20085;-57
2021/12/07 11:49:54;;;;;;;24.48;10.02;;;4.20;99.90;;;;;;5007820;28;20050;-57
2021/12/07 11:52:20;;;;;;;23.02;10.13;;;4.30;99.90;;;;;;5013304;28;20065;-57
2021/12/07 11:54:46;;;;;;;19.30;10.30;;;4.30;99.90;;;;;;5012442;28;20049;-57
2021/12/07 11:57:15;;;;;;;26.23;10.40;;;4.40;99.90;;;;;;5011411;28;20046;-57
2021/12/07 11:59:43;;;;;;;23.77;10.20;;;4.40;99.90;;;;;;5011916;28;20130;-55
2021/12/07 12:02:09;;;;;;;19.70;9.27;;;;;;;;;;5011728;28;20042;-57
2021/12/07 12:04:35;;;;;;;22.77;9.98;;;;;;;;;;5010536;28;20123;-57
2021/12/07 12:07:01;;;;;;;20.45;9.55;;;;;;;;;;5011358;28;20061;-58
2021/12/07 12:09:28;;;;;;;24.30;10.32;;;;;;;;;;5012202;28;20045;-56
2021/12/07 12:11:54;;;;;;;20.13;9.23;;;;;;;;;;5011985;28;20072;-56
2021/12/07 12:14:20;;;;;;;18.52;8.85;;;;;;;;;;5013359;28;20418;-58
2021/12/07 12:16:52;;;;;;;22.95;9.30;;;;;;;;;;5010773;28;20057;-57
2021/12/07 12:19:29;;;;;;;20.55;9.60;;;;;;;;;;5000563;28;20060;-56
2021/12/07 12:21:58;;;;;;;18.88;8.68;;;;;;;;;;4994746;28;20060;-57
2021/12/07 12:24:24;;;;;;;21.63;9.85;;;;;;;;;;5008791;28;20053;-57
2021/12/07 12:27:04;;;;;;;19.27;9.25;;;;;;;;;;5011940;28;20034;-57
2021/12/07 12:29:32;;;;;;;17.95;9.00;;;;;;;;;;5003674;28;20038;-56
2021/12/07 12:31:58;;;;;;;19.42;11.15;;;;;;;;;;5012702;28;20180;-57
2021/12/07 12:34:26;;;;;;;23.05;10.15;;;;;;;;;;5012663;28;20053;-57
2021/12/07 12:36:55;;;;;;;21.17;9.23;;;;;;;;;;5012590;28;20089;-57
2021/12/07 12:39:38;;;;;;;20.48;10.10;;;;;;;;;;5012509;28;20370;-57
2021/12/07 12:42:05;;;;;;;18.15;10.25;;;;;;;;;;4994999;28;20065;-57
2021/12/07 12:44:33;;;;;;;23.60;10.60;;;;;;;;;;5010378;28;20077;-57
2021/12/07 12:46:59;;;;;;;25.85;10.48;;;;;;;;;;5013038;28;20057;-57
2021/12/07 12:49:36;;;;;;;20.92;10.10;;;;;;;;;;5009038;28;20045;-56
2021/12/07 12:52:03;;;;;;;17.60;10.00;;;;;;;;;;4993424;28;20049;-57
2021/12/07 12:54:37;;;;;;;20.65;10.55;;;;;;;;;;5002145;28;20153;-57
2021/12/07 12:57:10;;;;;;;21.08;10.30;;;;;;;;;;5004839;28;20057;-57
2021/12/07 12:59:38;;;;;;;16.80;10.45;;;;;;;;;;5011020;28;20115;-57
2021/12/07 13:02:04;;;;;;;20.15;10.63;;;;;;;;;;5011225;28;20119;-57
2021/12/07 13:04:31;;;;;;;21.30;10.43;;;;;;;;;;5013335;28;20045;-57
2021/12/07 13:07:23;;;;;;;23.45;10.77;;;;;;;;;;5007974;28;20120;-58
2021/12/07 13:09:54;;;;;;;24.13;10.68;;;;;;;;;;5011800;28;20047;-57
2021/12/07 13:12:27;;;;;;;21.60;10.38;;;;;;;;;;5012162;28;20492;-57
2021/12/07 13:14:55;;;;;;;22.05;10.60;;;;;;;;;;5012570;28;20046;-58
2021/12/07 13:17:27;;;;;;;22.10;11.27;;;;;;;;;;5012208;28;20129;-57
2021/12/07 13:20:10;;;;;;;22.00;10.57;;;4.80;99.90;;;;;;5009789;28;20045;-57
2021/12/07 13:22:38;;;;;;;26.58;10.85;;;4.80;99.90;;;;;;5011946;28;20411;-57
2021/12/07 13:25:32;;;;;;;22.73;11.60;;;4.80;99.90;;;;;;5012347;28;20046;-56
2021/12/07 13:28:12;;;;;;;22.90;11.48;;;4.80;99.90;;;;;;4982572;28;20058;-55
2021/12/07 13:30:44;;;;;;;22.70;11.57;;;4.80;99.90;;;;;;5012265;28;20084;-57
2021/12/07 13:33:41;;;;;;;21.70;11.80;;;4.80;99.90;;;;;;5011736;28;20057;-57
2021/12/07 13:36:32;;;;;;;30.17;13.05;;;4.80;99.90;;;;;;4998589;28;20045;-55
2021/12/07 13:39:06;;;;;;;24.70;12.93;;;4.70;99.90;;;;;;5016631;28;20092;-57
2021/12/07 13:41:32;;;;;;;22.92;12.00;;;4.70;99.90;;;;;;5016585;28;20053;-57
2021/12/07 13:43:58;;;;;;;24.05;12.38;;;4.70;99.90;;;;;;5016529;28;20045;-56
2021/12/07 13:46:27;;;;;;;26.20;12.85;;;4.70;99.90;;;;;;5016009;28;20053;-57
2021/12/07 13:49:07;;;;;;;29.67;13.70;;;4.70;99.90;;;;;;5016407;28;20042;-57
2021/12/07 13:51:33;;;;;;;25.05;13.00;;;4.60;99.90;;;;;;5015987;28;20095;-57
2021/12/07 13:54:00;;;;;;;23.13;12.52;;;4.60;99.90;;;;;;5016040;28;20565;-56
2021/12/07 13:56:31;;;;;;;21.20;12.00;;;4.60;99.90;;;;;;5016734;28;20073;-55
2021/12/07 13:59:03;;;;;;;27.58;12.82;;;4.60;99.90;;;;;;5013427;28;20224;-57
2021/12/07 14:01:31;;;;;;;23.33;12.77;;;4.50;99.90;;;;;;5015563;28;20050;-57
2021/12/07 14:03:57;;;;;;;22.23;11.90;;;4.50;99.90;;;;;;5009538;28;20034;-57
2021/12/07 14:06:24;;;;;;;24.85;11.80;;;4.40;99.90;;;;;;5015340;28;20089;-57
2021/12/07 14:08:50;;;;;;;26.17;12.98;;;4.40;99.90;;;;;;5015738;28;20053;-57
2021/12/07 14:11:18;;;;;;;23.73;11.82;;;4.40;99.90;;;;;;5018779;28;20038;-55
2021/12/07 14:13:46;;;;;;;27.38;11.85;;;4.40;99.90;;;;;;5015512;28;20045;-56
2021/12/07 14:16:14;;;;;;;24.77;11.73;;;4.30;99.90;;;;;;5015934;28;20046;-56
2021/12/07 14:18:43;;;;;;;26.67;11.23;;;4.30;99.90;;;;;;5016007;28;20048;-56
2021/12/07 14:21:09;;;;;;;21.40;10.43;;;4.20;99.90;;;;;;5012996;28;20065;-57
2021/12/07 14:23:39;;;;;;;25.50;11.57;;;4.20;99.90;;;;;;5009788;28;20066;-57
2021/12/07 14:26:13;;;;;;;27.63;12.63;;;4.20;99.90;;;;;;5001349;28;20034;-56
2021/12/07 14:28:54;;;;;;;22.48;11.50;;;4.20;99.90;;;;;;5016095;28;20045;-57
2021/12/07 14:31:26;;;;;;;27.75;11.25;;;4.20;99.90;;;;;;5015589;28;20068;-57
2021/12/07 14:33:55;;;;;;;22.77;10.82;;;4.10;99.90;;;;;;5013946;28;20041;-56
2021/12/07 14:36:43;;;;;;;24.63;11.13;;;4.10;99.90;;;;;;5015857;28;20042;-56
2021/12/07 14:39:14;;;;;;;;;;;4.10;99.90;;;;;;5012865;28;20064;-57